sensor_id;sensor_type;location;lat;lon;timestamp;pressure;altitude;pressure_sealevel;temperature;humidity
37068;BME280;22982;42.848;25.468;2023-06-24T00:02:58;96279.31;;;17.29;100.00
37068;BME280;22982;42.848;25.468;2023-06-24T00:08:04;96266.59;;;17.13;100.00
37068;BME280;22982;42.848;25.468;2023-06-24T00:13:09;96281.34;;;17.06;100.00
37068;BME280;22982;42.848;25.468;2023-06-24T00:18:12;96256.06;;;17.01;100.00
37068;BME280;22982;42.848;25.468;2023-06-24T00:23:17;96252.72;;;16.99;100.00
37068;BME280;22982;42.848;25.468;2023-06-24T00:28:21;96264.69;;;17.03;100.00
37068;BME280;22982;42.848;25.468;2023-06-24T00:33:24;96257.16;;;16.99;100.00
37068;BME280;22982;42.848;25.468;2023-06-24T00:38:26;96250.31;;;16.96;100.00
37068;BME280;22982;42.848;25.468;2023-06-24T00:43:31;96256.97;;;16.91;100.00
37068;BME280;22982;42.848;25.468;2023-06-24T00:48:34;96249.91;;;16.91;100.00
37068;BME280;22982;42.848;25.468;2023-06-24T00:53:37;96242.91;;;16.90;100.00
37068;BME280;22982;42.848;25.468;2023-06-24T00:58:40;96241.13;;;16.70;100.00
37068;BME280;22982;42.848;25.468;2023-06-24T01:03:44;96226.88;;;16.71;100.00
37068;BME280;22982;42.848;25.468;2023-06-24T01:08:47;96224.47;;;16.58;100.00
37068;BME280;22982;42.848;25.468;2023-06-24T01:13:53;96235.03;;;16.79;100.00
37068;BME280;22982;42.848;25.468;2023-06-24T01:19:04;96241.53;;;16.75;100.00
37068;BME280;22982;42.848;25.468;2023-06-24T01:29:54;96234.69;;;16.72;100.00
37068;BME280;22982;42.848;25.468;2023-06-24T01:35:06;96239.13;;;16.83;100.00
37068;BME280;22982;42.848;25.468;2023-06-24T01:40:26;96228.03;;;16.78;100.00
37068;BME280;22982;42.848;25.468;2023-06-24T01:45:36;96221.22;;;16.54;100.00
37068;BME280;22982;42.848;25.468;2023-06-24T01:50:44;96219.56;;;16.53;100.00
37068;BME280;22982;42.848;25.468;2023-06-24T01:55:52;96219.00;;;16.50;100.00
37068;BME280;22982;42.848;25.468;2023-06-24T02:00:56;96230.16;;;16.53;100.00
37068;BME280;22982;42.848;25.468;2023-06-24T02:06:01;96224.19;;;16.61;100.00
37068;BME280;22982;42.848;25.468;2023-06-24T02:11:04;96213.81;;;16.48;100.00
37068;BME280;22982;42.848;25.468;2023-06-24T02:16:10;96193.31;;;16.19;100.00
37068;BME280;22982;42.848;25.468;2023-06-24T02:21:14;96216.97;;;16.42;100.00
37068;BME280;22982;42.848;25.468;2023-06-24T02:26:21;96227.56;;;16.42;100.00
37068;BME280;22982;42.848;25.468;2023-06-24T02:31:24;96253.91;;;16.43;100.00
37068;BME280;22982;42.848;25.468;2023-06-24T02:36:27;96254.88;;;16.42;100.00
37068;BME280;22982;42.848;25.468;2023-06-24T02:41:29;96255.97;;;16.40;100.00
37068;BME280;22982;42.848;25.468;2023-06-24T02:46:33;96257.56;;;16.10;100.00
37068;BME280;22982;42.848;25.468;2023-06-24T02:51:38;96263.75;;;15.99;100.00
37068;BME280;22982;42.848;25.468;2023-06-24T02:56:42;96262.28;;;15.95;100.00
37068;BME280;22982;42.848;25.468;2023-06-24T03:01:52;96261.69;;;16.03;100.00
37068;BME280;22982;42.848;25.468;2023-06-24T03:06:56;96253.94;;;16.11;100.00
37068;BME280;22982;42.848;25.468;2023-06-24T03:12:02;96271.44;;;16.23;100.00
37068;BME280;22982;42.848;25.468;2023-06-24T03:17:13;96282.63;;;16.27;100.00
37068;BME280;22982;42.848;25.468;2023-06-24T03:22:19;96282.31;;;16.41;100.00
37068;BME280;22982;42.848;25.468;2023-06-24T03:27:25;96287.66;;;16.51;100.00
37068;BME280;22982;42.848;25.468;2023-06-24T03:32:29;96285.19;;;16.38;100.00
37068;BME280;22982;42.848;25.468;2023-06-24T03:37:32;96252.09;;;16.44;100.00
37068;BME280;22982;42.848;25.468;2023-06-24T03:42:35;96276.50;;;16.69;100.00
37068;BME280;22982;42.848;25.468;2023-06-24T03:47:37;96270.88;;;16.62;100.00
37068;BME280;22982;42.848;25.468;2023-06-24T03:52:41;96292.63;;;16.65;100.00
37068;BME280;22982;42.848;25.468;2023-06-24T03:57:44;96283.72;;;16.67;100.00
37068;BME280;22982;42.848;25.468;2023-06-24T04:02:46;96304.28;;;16.95;100.00
37068;BME280;22982;42.848;25.468;2023-06-24T04:07:50;96288.13;;;16.98;100.00
37068;BME280;22982;42.848;25.468;2023-06-24T04:12:52;96303.50;;;17.14;100.00
37068;BME280;22982;42.848;25.468;2023-06-24T04:17:56;96293.41;;;17.29;100.00
37068;BME280;22982;42.848;25.468;2023-06-24T04:22:59;96294.13;;;17.31;100.00
37068;BME280;22982;42.848;25.468;2023-06-24T04:28:04;96274.59;;;17.32;100.00
37068;BME280;22982;42.848;25.468;2023-06-24T04:33:06;96293.09;;;17.63;100.00
37068;BME280;22982;42.848;25.468;2023-06-24T04:38:10;96290.91;;;17.78;100.00
37068;BME280;22982;42.848;25.468;2023-06-24T04:43:13;96291.81;;;18.27;100.00
37068;BME280;22982;42.848;25.468;2023-06-24T04:48:15;96271.22;;;19.25;100.00
37068;BME280;22982;42.848;25.468;2023-06-24T04:53:18;96265.81;;;20.18;100.00
37068;BME280;22982;42.848;25.468;2023-06-24T04:58:20;96284.00;;;21.11;100.00
37068;BME280;22982;42.848;25.468;2023-06-24T05:03:24;96257.63;;;21.69;100.00
37068;BME280;22982;42.848;25.468;2023-06-24T05:08:26;96248.03;;;22.25;100.00
37068;BME280;22982;42.848;25.468;2023-06-24T05:13:29;96225.34;;;22.70;100.00
37068;BME280;22982;42.848;25.468;2023-06-24T05:18:31;96246.25;;;23.39;100.00
37068;BME280;22982;42.848;25.468;2023-06-24T05:23:34;96250.56;;;23.88;100.00
37068;BME280;22982;42.848;25.468;2023-06-24T05:28:37;96248.69;;;24.20;100.00
37068;BME280;22982;42.848;25.468;2023-06-24T05:33:39;96239.81;;;24.80;97.00
37068;BME280;22982;42.848;25.468;2023-06-24T05:38:42;96219.34;;;25.17;93.81
37068;BME280;22982;42.848;25.468;2023-06-24T05:49:25;96221.53;;;26.10;87.79
37068;BME280;22982;42.848;25.468;2023-06-24T05:54:27;96236.06;;;26.37;86.83
37068;BME280;22982;42.848;25.468;2023-06-24T05:59:30;96222.59;;;26.80;85.35
37068;BME280;22982;42.848;25.468;2023-06-24T06:04:32;96236.41;;;27.34;81.55
37068;BME280;22982;42.848;25.468;2023-06-24T06:09:35;96227.03;;;27.64;76.62
37068;BME280;22982;42.848;25.468;2023-06-24T06:14:38;96216.22;;;28.13;75.20
37068;BME280;22982;42.848;25.468;2023-06-24T06:19:41;96217.28;;;28.45;76.76
37068;BME280;22982;42.848;25.468;2023-06-24T06:24:43;96223.53;;;29.19;72.25
37068;BME280;22982;42.848;25.468;2023-06-24T06:29:46;96224.28;;;29.39;69.73
37068;BME280;22982;42.848;25.468;2023-06-24T06:34:49;96220.16;;;29.44;65.71
37068;BME280;22982;42.848;25.468;2023-06-24T06:39:52;96210.41;;;29.94;61.65
37068;BME280;22982;42.848;25.468;2023-06-24T06:44:54;96213.50;;;30.30;61.18
37068;BME280;22982;42.848;25.468;2023-06-24T06:49:57;96205.44;;;31.05;58.85
37068;BME280;22982;42.848;25.468;2023-06-24T06:55:01;96206.53;;;34.38;47.94
37068;BME280;22982;42.848;25.468;2023-06-24T07:00:05;96176.66;;;37.13;40.69
37068;BME280;22982;42.848;25.468;2023-06-24T07:05:08;96172.22;;;38.18;39.26
37068;BME280;22982;42.848;25.468;2023-06-24T07:10:12;96171.16;;;38.65;37.76
37068;BME280;22982;42.848;25.468;2023-06-24T07:15:15;96170.88;;;39.84;36.42
37068;BME280;22982;42.848;25.468;2023-06-24T07:20:22;96174.38;;;39.19;37.75
37068;BME280;22982;42.848;25.468;2023-06-24T07:25:24;96188.22;;;37.79;35.67
37068;BME280;22982;42.848;25.468;2023-06-24T07:30:28;96173.16;;;36.48;40.87
37068;BME280;22982;42.848;25.468;2023-06-24T07:35:31;96164.41;;;36.51;40.71
37068;BME280;22982;42.848;25.468;2023-06-24T07:40:35;96173.41;;;36.47;41.56
37068;BME280;22982;42.848;25.468;2023-06-24T07:45:37;96172.19;;;36.65;39.79
37068;BME280;22982;42.848;25.468;2023-06-24T07:50:41;96157.13;;;36.62;37.02
37068;BME280;22982;42.848;25.468;2023-06-24T07:55:44;96161.59;;;36.68;36.28
37068;BME280;22982;42.848;25.468;2023-06-24T08:00:47;96175.91;;;36.86;37.83
37068;BME280;22982;42.848;25.468;2023-06-24T08:05:49;96165.06;;;36.64;36.11
37068;BME280;22982;42.848;25.468;2023-06-24T08:10:52;96172.25;;;35.88;35.26
37068;BME280;22982;42.848;25.468;2023-06-24T08:15:55;96157.06;;;36.52;37.09
37068;BME280;22982;42.848;25.468;2023-06-24T08:20:58;96160.16;;;36.28;39.95
37068;BME280;22982;42.848;25.468;2023-06-24T08:26:00;96179.19;;;36.88;33.86
37068;BME280;22982;42.848;25.468;2023-06-24T08:31:17;96149.22;;;37.51;31.22
37068;BME280;22982;42.848;25.468;2023-06-24T08:36:39;96161.50;;;37.43;31.51
37068;BME280;22982;42.848;25.468;2023-06-24T08:41:41;96173.66;;;37.63;30.87
37068;BME280;22982;42.848;25.468;2023-06-24T08:46:45;96153.31;;;38.17;31.42
37068;BME280;22982;42.848;25.468;2023-06-24T08:52:12;96149.06;;;37.78;32.36
37068;BME280;22982;42.848;25.468;2023-06-24T08:57:16;96161.28;;;37.50;31.36
37068;BME280;22982;42.848;25.468;2023-06-24T09:02:19;96174.72;;;37.57;32.44
37068;BME280;22982;42.848;25.468;2023-06-24T09:07:26;96165.75;;;36.76;33.34
37068;BME280;22982;42.848;25.468;2023-06-24T09:12:32;96137.34;;;37.20;32.17
37068;BME280;22982;42.848;25.468;2023-06-24T09:17:44;96156.38;;;37.04;31.94
37068;BME280;22982;42.848;25.468;2023-06-24T09:22:50;96157.59;;;37.19;31.76
37068;BME280;22982;42.848;25.468;2023-06-24T09:27:52;96157.09;;;37.32;32.59
37068;BME280;22982;42.848;25.468;2023-06-24T09:32:58;96162.84;;;38.04;33.15
37068;BME280;22982;42.848;25.468;2023-06-24T09:38:00;96149.97;;;37.26;31.70
37068;BME280;22982;42.848;25.468;2023-06-24T09:43:03;96137.47;;;37.50;32.05
37068;BME280;22982;42.848;25.468;2023-06-24T09:48:06;96112.84;;;37.45;30.81
37068;BME280;22982;42.848;25.468;2023-06-24T09:53:08;96147.44;;;36.17;34.16
37068;BME280;22982;42.848;25.468;2023-06-24T09:58:12;96145.22;;;35.64;35.15
37068;BME280;22982;42.848;25.468;2023-06-24T10:03:15;96139.28;;;35.06;37.63
37068;BME280;22982;42.848;25.468;2023-06-24T10:08:18;96133.84;;;35.06;39.07
37068;BME280;22982;42.848;25.468;2023-06-24T10:13:22;96132.47;;;34.36;38.10
37068;BME280;22982;42.848;25.468;2023-06-24T10:39:38;96116.56;;;34.45;35.79
37068;BME280;22982;42.848;25.468;2023-06-24T10:44:49;96109.47;;;34.61;36.53
37068;BME280;22982;42.848;25.468;2023-06-24T10:49:52;96102.84;;;34.90;41.04
37068;BME280;22982;42.848;25.468;2023-06-24T10:54:57;96101.50;;;35.54;38.18
37068;BME280;22982;42.848;25.468;2023-06-24T11:00:01;96104.88;;;35.89;35.64
37068;BME280;22982;42.848;25.468;2023-06-24T11:05:05;96098.03;;;34.98;34.92
37068;BME280;22982;42.848;25.468;2023-06-24T11:10:13;96086.59;;;36.49;34.33
37068;BME280;22982;42.848;25.468;2023-06-24T11:15:16;96073.72;;;37.45;33.50
37068;BME280;22982;42.848;25.468;2023-06-24T11:20:20;96090.84;;;37.93;31.20
37068;BME280;22982;42.848;25.468;2023-06-24T11:25:22;96061.16;;;37.49;31.23
37068;BME280;22982;42.848;25.468;2023-06-24T11:30:25;96075.59;;;37.29;30.60
37068;BME280;22982;42.848;25.468;2023-06-24T11:35:28;96080.16;;;38.07;29.35
37068;BME280;22982;42.848;25.468;2023-06-24T11:40:33;96049.78;;;39.51;29.81
37068;BME280;22982;42.848;25.468;2023-06-24T11:45:36;96024.66;;;40.71;28.25
37068;BME280;22982;42.848;25.468;2023-06-24T11:50:39;96050.91;;;39.39;28.79
37068;BME280;22982;42.848;25.468;2023-06-24T11:55:42;96049.50;;;39.52;27.99
37068;BME280;22982;42.848;25.468;2023-06-24T12:00:44;96023.06;;;39.67;28.30
37068;BME280;22982;42.848;25.468;2023-06-24T12:05:49;96028.69;;;39.91;27.22
37068;BME280;22982;42.848;25.468;2023-06-24T12:10:52;96022.41;;;38.34;29.42
37068;BME280;22982;42.848;25.468;2023-06-24T12:15:55;96027.25;;;37.50;30.79
37068;BME280;22982;42.848;25.468;2023-06-24T12:20:57;96002.06;;;35.94;31.07
37068;BME280;22982;42.848;25.468;2023-06-24T12:26:00;96002.75;;;34.42;34.08
37068;BME280;22982;42.848;25.468;2023-06-24T12:31:03;96022.59;;;34.98;33.53
37068;BME280;22982;42.848;25.468;2023-06-24T12:36:05;96012.06;;;34.46;36.00
37068;BME280;22982;42.848;25.468;2023-06-24T12:41:08;96021.69;;;34.93;34.00
37068;BME280;22982;42.848;25.468;2023-06-24T12:46:11;96009.25;;;34.80;33.77
37068;BME280;22982;42.848;25.468;2023-06-24T12:51:14;95977.81;;;34.50;34.92
37068;BME280;22982;42.848;25.468;2023-06-24T12:56:16;96008.69;;;34.78;34.97
37068;BME280;22982;42.848;25.468;2023-06-24T13:01:18;95989.53;;;34.50;34.79
37068;BME280;22982;42.848;25.468;2023-06-24T13:06:22;96005.84;;;34.50;33.34
37068;BME280;22982;42.848;25.468;2023-06-24T13:11:24;95996.47;;;34.41;33.41
37068;BME280;22982;42.848;25.468;2023-06-24T13:16:26;95976.75;;;33.49;36.93
37068;BME280;22982;42.848;25.468;2023-06-24T13:21:29;95971.72;;;33.70;36.54
37068;BME280;22982;42.848;25.468;2023-06-24T13:26:31;95986.88;;;33.83;36.99
37068;BME280;22982;42.848;25.468;2023-06-24T13:31:34;95954.91;;;33.27;37.43
37068;BME280;22982;42.848;25.468;2023-06-24T13:36:38;95956.38;;;33.18;39.53
37068;BME280;22982;42.848;25.468;2023-06-24T13:41:40;95958.66;;;32.69;37.88
37068;BME280;22982;42.848;25.468;2023-06-24T13:46:43;95975.38;;;33.06;37.01
37068;BME280;22982;42.848;25.468;2023-06-24T13:51:46;95950.78;;;32.84;36.35
37068;BME280;22982;42.848;25.468;2023-06-24T13:56:49;95967.22;;;33.18;35.98
37068;BME280;22982;42.848;25.468;2023-06-24T14:01:51;95969.94;;;32.77;37.24
37068;BME280;22982;42.848;25.468;2023-06-24T14:06:57;95959.59;;;31.38;39.61
37068;BME280;22982;42.848;25.468;2023-06-24T14:12:00;95948.56;;;30.42;44.85
37068;BME280;22982;42.848;25.468;2023-06-24T14:17:05;95985.75;;;30.03;50.19
37068;BME280;22982;42.848;25.468;2023-06-24T14:22:10;95977.38;;;30.29;45.74
37068;BME280;22982;42.848;25.468;2023-06-24T14:27:14;95985.06;;;30.69;45.06
37068;BME280;22982;42.848;25.468;2023-06-24T14:32:16;95975.28;;;30.87;42.92
37068;BME280;22982;42.848;25.468;2023-06-24T14:37:20;96011.81;;;31.15;44.98
37068;BME280;22982;42.848;25.468;2023-06-24T14:42:22;96006.50;;;31.08;42.97
37068;BME280;22982;42.848;25.468;2023-06-24T14:47:25;96016.66;;;30.94;43.23
37068;BME280;22982;42.848;25.468;2023-06-24T14:52:27;95985.97;;;30.63;46.09
37068;BME280;22982;42.848;25.468;2023-06-24T14:57:30;95995.38;;;30.42;50.73
37068;BME280;22982;42.848;25.468;2023-06-24T15:02:33;95997.50;;;29.90;58.73
37068;BME280;22982;42.848;25.468;2023-06-24T15:07:36;96023.41;;;30.23;50.38
37068;BME280;22982;42.848;25.468;2023-06-24T15:12:40;96035.06;;;30.23;67.60
37068;BME280;22982;42.848;25.468;2023-06-24T15:17:43;96019.69;;;29.67;73.12
37068;BME280;22982;42.848;25.468;2023-06-24T15:22:47;96031.63;;;29.20;71.84
37068;BME280;22982;42.848;25.468;2023-06-24T15:27:49;96009.19;;;28.68;79.19
37068;BME280;22982;42.848;25.468;2023-06-24T15:32:52;96025.59;;;28.60;82.57
37068;BME280;22982;42.848;25.468;2023-06-24T15:37:54;96022.38;;;27.98;90.42
37068;BME280;22982;42.848;25.468;2023-06-24T15:42:57;96030.59;;;27.89;84.15
37068;BME280;22982;42.848;25.468;2023-06-24T15:47:59;96017.56;;;27.80;87.25
37068;BME280;22982;42.848;25.468;2023-06-24T15:53:03;96050.91;;;27.65;94.32
37068;BME280;22982;42.848;25.468;2023-06-24T15:58:05;96033.69;;;27.53;99.72
37068;BME280;22982;42.848;25.468;2023-06-24T16:03:08;96025.19;;;27.36;99.76
37068;BME280;22982;42.848;25.468;2023-06-24T16:08:11;96034.53;;;26.92;100.00
37068;BME280;22982;42.848;25.468;2023-06-24T16:13:13;96022.69;;;26.73;100.00
37068;BME280;22982;42.848;25.468;2023-06-24T16:18:16;96045.19;;;26.65;100.00
37068;BME280;22982;42.848;25.468;2023-06-24T16:23:18;96042.94;;;26.41;100.00
37068;BME280;22982;42.848;25.468;2023-06-24T16:28:22;96008.38;;;26.38;100.00
37068;BME280;22982;42.848;25.468;2023-06-24T16:33:26;95999.03;;;26.27;100.00
37068;BME280;22982;42.848;25.468;2023-06-24T16:38:29;96026.22;;;25.89;100.00
37068;BME280;22982;42.848;25.468;2023-06-24T16:43:32;96042.88;;;25.77;100.00
37068;BME280;22982;42.848;25.468;2023-06-24T16:48:34;96041.41;;;25.53;100.00
37068;BME280;22982;42.848;25.468;2023-06-24T16:53:38;96066.00;;;25.35;100.00
37068;BME280;22982;42.848;25.468;2023-06-24T16:58:40;96060.94;;;25.26;100.00
37068;BME280;22982;42.848;25.468;2023-06-24T17:03:45;96039.28;;;25.27;100.00
37068;BME280;22982;42.848;25.468;2023-06-24T17:08:47;96080.00;;;25.16;100.00
37068;BME280;22982;42.848;25.468;2023-06-24T17:13:51;96039.81;;;24.86;100.00
37068;BME280;22982;42.848;25.468;2023-06-24T17:18:53;96092.63;;;24.71;100.00
37068;BME280;22982;42.848;25.468;2023-06-24T17:23:56;96057.38;;;24.44;100.00
37068;BME280;22982;42.848;25.468;2023-06-24T17:28:58;96073.19;;;24.39;100.00
37068;BME280;22982;42.848;25.468;2023-06-24T17:34:01;96053.19;;;24.12;100.00
37068;BME280;22982;42.848;25.468;2023-06-24T17:39:04;96050.03;;;23.70;100.00
37068;BME280;22982;42.848;25.468;2023-06-24T17:44:06;96089.19;;;23.71;100.00
37068;BME280;22982;42.848;25.468;2023-06-24T17:49:09;96085.91;;;23.61;100.00
37068;BME280;22982;42.848;25.468;2023-06-24T17:54:12;96075.06;;;23.31;100.00
37068;BME280;22982;42.848;25.468;2023-06-24T17:59:15;96076.50;;;23.10;100.00
37068;BME280;22982;42.848;25.468;2023-06-24T18:04:17;96090.91;;;23.09;100.00
37068;BME280;22982;42.848;25.468;2023-06-24T18:09:20;96092.00;;;22.84;100.00
37068;BME280;22982;42.848;25.468;2023-06-24T18:14:23;96113.09;;;22.70;100.00
37068;BME280;22982;42.848;25.468;2023-06-24T18:19:26;96133.97;;;22.67;100.00
37068;BME280;22982;42.848;25.468;2023-06-24T18:24:29;96135.03;;;22.41;100.00
37068;BME280;22982;42.848;25.468;2023-06-24T18:29:31;96136.56;;;22.27;100.00
37068;BME280;22982;42.848;25.468;2023-06-24T18:34:34;96133.34;;;22.24;100.00
37068;BME280;22982;42.848;25.468;2023-06-24T18:39:37;96143.56;;;21.79;100.00
37068;BME280;22982;42.848;25.468;2023-06-24T18:44:40;96136.38;;;21.79;100.00
37068;BME280;22982;42.848;25.468;2023-06-24T18:49:42;96125.88;;;21.78;100.00
37068;BME280;22982;42.848;25.468;2023-06-24T18:54:45;96134.19;;;21.91;100.00
37068;BME280;22982;42.848;25.468;2023-06-24T18:59:48;96144.72;;;21.85;100.00
37068;BME280;22982;42.848;25.468;2023-06-24T19:04:51;96157.41;;;21.99;100.00
37068;BME280;22982;42.848;25.468;2023-06-24T19:09:54;96160.22;;;21.73;100.00
37068;BME280;22982;42.848;25.468;2023-06-24T19:14:56;96127.38;;;21.05;100.00
37068;BME280;22982;42.848;25.468;2023-06-24T19:19:59;96103.94;;;20.74;100.00
37068;BME280;22982;42.848;25.468;2023-06-24T19:25:01;96121.19;;;20.70;100.00
37068;BME280;22982;42.848;25.468;2023-06-24T19:30:04;96106.13;;;20.53;100.00
37068;BME280;22982;42.848;25.468;2023-06-24T19:35:08;96128.69;;;20.40;100.00
37068;BME280;22982;42.848;25.468;2023-06-24T19:40:11;96162.25;;;20.59;100.00
37068;BME280;22982;42.848;25.468;2023-06-24T19:45:16;96153.63;;;20.39;100.00
37068;BME280;22982;42.848;25.468;2023-06-24T19:50:19;96090.16;;;20.00;100.00
37068;BME280;22982;42.848;25.468;2023-06-24T19:55:22;96116.94;;;19.81;100.00
37068;BME280;22982;42.848;25.468;2023-06-24T20:00:25;96131.84;;;19.74;100.00
37068;BME280;22982;42.848;25.468;2023-06-24T20:05:28;96095.19;;;19.49;100.00
37068;BME280;22982;42.848;25.468;2023-06-24T20:10:31;96101.09;;;19.61;100.00
37068;BME280;22982;42.848;25.468;2023-06-24T20:15:34;96100.19;;;19.70;100.00
37068;BME280;22982;42.848;25.468;2023-06-24T20:20:37;96107.06;;;19.55;100.00
37068;BME280;22982;42.848;25.468;2023-06-24T20:25:40;96113.56;;;19.43;100.00
37068;BME280;22982;42.848;25.468;2023-06-24T20:30:42;96148.69;;;19.64;100.00
37068;BME280;22982;42.848;25.468;2023-06-24T20:35:46;96141.75;;;19.36;100.00
37068;BME280;22982;42.848;25.468;2023-06-24T20:40:48;96163.81;;;19.18;100.00
37068;BME280;22982;42.848;25.468;2023-06-24T20:45:54;96149.84;;;18.88;100.00
37068;BME280;22982;42.848;25.468;2023-06-24T20:50:56;96172.44;;;19.02;100.00
37068;BME280;22982;42.848;25.468;2023-06-24T20:56:00;96200.97;;;19.00;100.00
37068;BME280;22982;42.848;25.468;2023-06-24T21:01:06;96206.81;;;18.56;100.00
37068;BME280;22982;42.848;25.468;2023-06-24T21:06:12;96205.44;;;18.52;100.00
37068;BME280;22982;42.848;25.468;2023-06-24T21:11:15;96188.94;;;18.59;100.00
37068;BME280;22982;42.848;25.468;2023-06-24T21:16:19;96196.47;;;18.63;100.00
37068;BME280;22982;42.848;25.468;2023-06-24T21:21:22;96163.41;;;18.28;100.00
37068;BME280;22982;42.848;25.468;2023-06-24T21:26:25;96173.66;;;18.13;100.00
37068;BME280;22982;42.848;25.468;2023-06-24T21:31:28;96183.72;;;18.00;100.00
37068;BME280;22982;42.848;25.468;2023-06-24T21:36:30;96194.75;;;17.95;100.00
37068;BME280;22982;42.848;25.468;2023-06-24T21:41:34;96184.28;;;18.04;100.00
37068;BME280;22982;42.848;25.468;2023-06-24T21:46:36;96203.53;;;18.15;100.00
37068;BME280;22982;42.848;25.468;2023-06-24T21:51:39;96176.47;;;18.02;100.00
37068;BME280;22982;42.848;25.468;2023-06-24T21:56:42;96203.00;;;18.22;100.00
37068;BME280;22982;42.848;25.468;2023-06-24T22:01:44;96190.97;;;18.17;100.00
37068;BME280;22982;42.848;25.468;2023-06-24T22:06:47;96175.59;;;18.31;100.00
37068;BME280;22982;42.848;25.468;2023-06-24T22:11:50;96176.03;;;18.16;100.00
37068;BME280;22982;42.848;25.468;2023-06-24T22:16:53;96195.81;;;18.32;100.00
37068;BME280;22982;42.848;25.468;2023-06-24T22:21:55;96150.75;;;18.22;100.00
37068;BME280;22982;42.848;25.468;2023-06-24T22:26:57;96159.28;;;18.06;100.00
37068;BME280;22982;42.848;25.468;2023-06-24T22:32:01;96151.88;;;18.20;100.00
37068;BME280;22982;42.848;25.468;2023-06-24T22:37:03;96159.53;;;18.23;100.00
37068;BME280;22982;42.848;25.468;2023-06-24T22:42:07;96132.03;;;17.85;100.00
37068;BME280;22982;42.848;25.468;2023-06-24T22:47:09;96158.88;;;17.91;100.00
37068;BME280;22982;42.848;25.468;2023-06-24T22:52:12;96160.78;;;17.79;100.00
37068;BME280;22982;42.848;25.468;2023-06-24T22:57:14;96152.75;;;17.91;100.00
37068;BME280;22982;42.848;25.468;2023-06-24T23:02:17;96149.97;;;17.92;100.00
37068;BME280;22982;42.848;25.468;2023-06-24T23:07:20;96149.94;;;18.02;100.00
37068;BME280;22982;42.848;25.468;2023-06-24T23:12:26;96145.34;;;17.94;100.00
37068;BME280;22982;42.848;25.468;2023-06-24T23:17:30;96129.41;;;17.46;100.00
37068;BME280;22982;42.848;25.468;2023-06-24T23:22:33;96141.00;;;17.64;100.00
37068;BME280;22982;42.848;25.468;2023-06-24T23:27:37;96172.81;;;17.84;100.00
37068;BME280;22982;42.848;25.468;2023-06-24T23:32:39;96164.28;;;17.70;100.00
37068;BME280;22982;42.848;25.468;2023-06-24T23:37:44;96156.06;;;17.73;100.00
37068;BME280;22982;42.848;25.468;2023-06-24T23:42:46;96153.84;;;17.78;100.00
37068;BME280;22982;42.848;25.468;2023-06-24T23:47:52;96134.88;;;17.64;100.00
37068;BME280;22982;42.848;25.468;2023-06-24T23:53:03;96129.84;;;17.60;100.00
37068;BME280;22982;42.848;25.468;2023-06-24T23:58:05;96146.28;;;17.74;100.00
